createdAt,value
2018-09-23T00:01:36.394Z,30.00
2018-09-23T00:04:08.814Z,30.01
2018-09-23T00:06:40.973Z,30.01
2018-09-23T00:09:12.749Z,29.99
2018-09-23T00:11:44.658Z,29.99
2018-09-23T00:14:16.527Z,29.98
2018-09-23T00:16:48.830Z,29.98
2018-09-23T00:19:20.806Z,29.98
2018-09-23T00:21:52.532Z,29.98
2018-09-23T00:24:24.311Z,29.97
2018-09-23T00:26:56.161Z,29.97
2018-09-23T00:29:33.183Z,29.96
2018-09-23T00:32:04.884Z,29.96
2018-09-23T00:34:36.687Z,29.96
2018-09-23T00:37:08.553Z,29.95
2018-09-23T00:39:40.207Z,29.94
2018-09-23T00:42:12.364Z,29.94
2018-09-23T00:44:44.408Z,29.95
2018-09-23T00:47:16.138Z,29.94
2018-09-23T00:49:48.260Z,29.94
2018-09-23T00:52:20.329Z,29.95
2018-09-23T00:54:52.988Z,29.96
2018-09-23T00:57:24.882Z,29.95
2018-09-23T00:59:56.841Z,29.94
2018-09-23T01:02:28.804Z,29.94
2018-09-23T01:05:01.233Z,29.94
2018-09-23T01:07:32.781Z,29.93
2018-09-23T01:10:04.813Z,29.93
2018-09-23T01:12:37.337Z,29.92
2018-09-23T01:15:09.335Z,29.92
2018-09-23T01:17:41.329Z,29.92
2018-09-23T01:20:13.241Z,29.92
2018-09-23T01:22:45.131Z,29.90
2018-09-23T01:25:16.803Z,29.92
2018-09-23T01:27:48.593Z,29.90
2018-09-23T01:30:20.472Z,29.90
2018-09-23T01:32:52.409Z,29.90
2018-09-23T01:35:24.623Z,29.89
2018-09-23T01:37:56.905Z,29.86
2018-09-23T01:40:28.688Z,29.87
2018-09-23T01:43:00.410Z,29.89
2018-09-23T01:45:32.345Z,29.88
2018-09-23T01:48:04.097Z,29.88
2018-09-23T01:50:35.985Z,29.86
2018-09-23T01:53:07.827Z,29.86
2018-09-23T01:55:39.667Z,29.86
2018-09-23T01:58:11.557Z,29.84
2018-09-23T02:00:43.263Z,29.84
2018-09-23T02:03:15.025Z,29.83
2018-09-23T02:05:46.941Z,29.83
2018-09-23T02:08:19.337Z,29.83
2018-09-23T02:10:51.015Z,29.83
2018-09-23T02:13:22.961Z,29.83
2018-09-23T02:15:55.666Z,29.83
2018-09-23T02:18:27.622Z,29.77
2018-09-23T02:20:59.880Z,29.79
2018-09-23T02:23:31.519Z,29.77
2018-09-23T02:26:03.264Z,29.76
2018-09-23T02:28:34.602Z,29.76
2018-09-23T02:31:06.437Z,29.75
2018-09-23T02:33:38.180Z,29.75
2018-09-23T02:36:10.414Z,29.74
2018-09-23T02:38:42.246Z,29.73
2018-09-23T02:41:14.459Z,29.73
2018-09-23T02:43:46.383Z,29.72
2018-09-23T02:46:18.581Z,29.71
2018-09-23T02:48:50.643Z,29.71
2018-09-23T02:51:23.817Z,29.71
2018-09-23T02:53:56.503Z,29.72
2018-09-23T02:56:29.334Z,29.70
2018-09-23T02:59:02.829Z,29.70
2018-09-23T03:01:34.723Z,29.67
2018-09-23T03:04:06.469Z,29.68
2018-09-23T03:06:38.297Z,29.67
2018-09-23T03:09:11.504Z,29.65
2018-09-23T03:11:43.784Z,29.67
2018-09-23T03:14:17.047Z,29.67
2018-09-23T03:16:49.068Z,29.68
2018-09-23T03:19:20.749Z,29.69
2018-09-23T03:21:52.826Z,29.69
2018-09-23T03:24:24.401Z,29.68
2018-09-23T03:26:56.335Z,29.70
2018-09-23T03:29:28.147Z,29.70
2018-09-23T03:31:59.980Z,29.70
2018-09-23T03:34:31.635Z,29.69
2018-09-23T03:37:03.448Z,29.69
2018-09-23T03:39:35.165Z,29.71
2018-09-23T03:42:07.189Z,29.72
2018-09-23T03:44:39.577Z,29.71
2018-09-23T03:47:11.338Z,29.72
2018-09-23T03:49:43.251Z,29.72
2018-09-23T03:52:16.105Z,29.71
2018-09-23T03:54:47.933Z,29.72
2018-09-23T03:57:19.597Z,29.72
2018-09-23T03:59:52.329Z,29.73
2018-09-23T04:02:24.128Z,29.73
2018-09-23T04:04:56.087Z,29.74
2018-09-23T04:07:28.099Z,29.75
2018-09-23T04:10:00.074Z,29.74
2018-09-23T04:12:31.897Z,29.77
2018-09-23T04:15:03.690Z,29.75
2018-09-23T04:17:35.804Z,29.77
2018-09-23T04:20:07.641Z,29.75
2018-09-23T04:22:46.244Z,29.77
2018-09-23T04:25:18.262Z,29.77
2018-09-23T04:27:50.786Z,29.76
2018-09-23T04:30:23.101Z,29.77
2018-09-23T04:32:55.082Z,29.75
2018-09-23T04:35:26.947Z,29.77
2018-09-23T04:37:58.801Z,29.79
2018-09-23T04:40:30.631Z,29.78
2018-09-23T04:43:02.313Z,29.79
2018-09-23T04:45:34.100Z,29.79
2018-09-23T04:48:06.579Z,29.76
2018-09-23T04:50:38.267Z,29.72
2018-09-23T04:53:10.362Z,29.74
2018-09-23T04:55:42.424Z,29.73
2018-09-23T04:58:14.280Z,29.73
2018-09-23T05:00:46.118Z,29.74
2018-09-23T05:03:18.020Z,29.75
2018-09-23T05:05:49.868Z,29.75
2018-09-23T05:08:21.738Z,29.77
2018-09-23T05:10:53.722Z,29.76
2018-09-23T05:13:25.885Z,29.76
2018-09-23T05:15:57.628Z,29.78
2018-09-23T05:18:29.558Z,29.80
2018-09-23T05:21:01.191Z,29.81
2018-09-23T05:23:33.022Z,29.82
2018-09-23T05:26:04.732Z,29.85
2018-09-23T05:28:36.616Z,29.86
2018-09-23T05:31:08.646Z,29.85
2018-09-23T05:33:40.616Z,29.86
2018-09-23T05:36:12.293Z,29.90
2018-09-23T05:38:48.581Z,29.92
2018-09-23T05:41:20.391Z,29.91
2018-09-23T05:43:52.342Z,29.92
2018-09-23T05:46:24.798Z,29.92
2018-09-23T05:48:56.734Z,29.92
2018-09-23T05:51:28.574Z,29.93
2018-09-23T05:54:00.881Z,29.93
2018-09-23T05:56:32.665Z,29.92
2018-09-23T05:59:04.683Z,29.93
2018-09-23T06:01:36.488Z,29.94
2018-09-23T06:04:08.415Z,29.95
2018-09-23T06:06:40.178Z,29.97
2018-09-23T06:09:12.151Z,29.99
2018-09-23T06:11:43.955Z,30.00
2018-09-23T06:14:15.790Z,30.02
2018-09-23T06:16:47.780Z,30.01
2018-09-23T06:19:19.945Z,30.03
2018-09-23T06:21:51.610Z,30.04
2018-09-23T06:24:23.476Z,30.04
2018-09-23T06:26:55.357Z,30.06
2018-09-23T06:29:27.226Z,30.07
2018-09-23T06:31:58.515Z,30.08
2018-09-23T06:34:29.923Z,30.09
2018-09-23T06:37:01.236Z,30.10
2018-09-23T06:39:34.320Z,30.10
2018-09-23T06:42:06.008Z,30.08
2018-09-23T06:44:37.885Z,30.08
2018-09-23T06:47:09.997Z,30.08
2018-09-23T06:49:41.767Z,30.08
2018-09-23T06:52:13.488Z,30.08
2018-09-23T06:54:46.389Z,30.09
2018-09-23T06:57:18.308Z,30.09
2018-09-23T06:59:50.163Z,30.10
2018-09-23T07:02:21.991Z,30.10
2018-09-23T07:04:54.390Z,30.10
2018-09-23T07:07:26.177Z,30.11
2018-09-23T07:09:58.380Z,30.12
2018-09-23T07:12:30.029Z,30.13
2018-09-23T07:15:02.144Z,30.14
2018-09-23T07:17:34.049Z,30.15
2018-09-23T07:20:05.754Z,30.18
2018-09-23T07:22:37.554Z,30.16
2018-09-23T07:25:09.294Z,30.16
2018-09-23T07:27:41.153Z,30.17
2018-09-23T07:30:13.028Z,30.18
2018-09-23T07:32:44.769Z,30.18
2018-09-23T07:35:16.198Z,30.18
2018-09-23T07:37:47.871Z,30.17
2018-09-23T07:40:19.252Z,30.14
2018-09-23T07:42:51.044Z,30.11
2018-09-23T07:45:22.870Z,30.08
2018-09-23T07:47:54.751Z,30.09
2018-09-23T07:50:26.827Z,30.08
2018-09-23T07:52:58.568Z,30.08
2018-09-23T07:55:31.556Z,30.08
2018-09-23T07:58:03.913Z,30.08
2018-09-23T08:00:36.847Z,30.10
2018-09-23T08:03:08.523Z,30.07
2018-09-23T08:05:40.641Z,30.10
2018-09-23T08:08:12.671Z,30.13
2018-09-23T08:10:44.619Z,30.13
2018-09-23T08:13:16.632Z,30.14
2018-09-23T08:15:48.563Z,30.18
2018-09-23T08:18:20.353Z,30.18
2018-09-23T08:20:52.237Z,30.21
2018-09-23T08:23:24.281Z,30.23
2018-09-23T08:25:56.074Z,30.23
2018-09-23T08:28:27.959Z,30.24
2018-09-23T08:30:59.785Z,30.26
2018-09-23T08:33:31.466Z,30.28
2018-09-23T08:36:03.330Z,30.29
2018-09-23T08:38:35.222Z,30.30
2018-09-23T08:41:07.362Z,30.32
2018-09-23T08:43:39.058Z,30.32
2018-09-23T08:46:11.507Z,30.32
2018-09-23T08:48:43.283Z,30.34
2018-09-23T08:51:14.863Z,30.35
2018-09-23T08:53:46.583Z,30.36
2018-09-23T08:56:19.876Z,30.37
2018-09-23T08:58:52.267Z,30.38
2018-09-23T09:01:24.139Z,30.39
2018-09-23T09:03:55.866Z,30.40
2018-09-23T09:06:27.556Z,30.40
2018-09-23T09:08:59.335Z,30.42
2018-09-23T09:11:31.273Z,30.43
2018-09-23T09:14:03.061Z,30.43
2018-09-23T09:16:34.945Z,30.43
2018-09-23T09:19:06.834Z,30.43
2018-09-23T09:21:38.896Z,30.45
2018-09-23T09:24:10.897Z,30.47
2018-09-23T09:26:42.850Z,30.47
2018-09-23T09:29:14.616Z,30.50
2018-09-23T09:31:46.456Z,30.51
2018-09-23T09:34:18.146Z,30.52
2018-09-23T09:36:49.957Z,30.53
2018-09-23T09:39:21.649Z,30.53
2018-09-23T09:41:54.590Z,30.55
2018-09-23T09:44:26.785Z,30.57
2018-09-23T09:46:58.719Z,30.58
2018-09-23T09:49:30.749Z,30.58
2018-09-23T09:52:02.574Z,30.58
2018-09-23T09:54:34.265Z,30.59
2018-09-23T09:57:06.363Z,30.60
2018-09-23T09:59:38.681Z,30.60
2018-09-23T10:02:10.454Z,30.60
2018-09-23T10:04:42.389Z,30.59
2018-09-23T10:07:14.485Z,30.59
2018-09-23T10:09:46.318Z,30.61
2018-09-23T10:12:18.895Z,30.62
2018-09-23T10:14:50.624Z,30.62
2018-09-23T10:17:22.552Z,30.63
2018-09-23T10:19:54.300Z,30.64
2018-09-23T10:22:26.131Z,30.65
2018-09-23T10:24:58.048Z,30.65
2018-09-23T10:27:29.775Z,30.66
2018-09-23T10:30:01.514Z,30.65
2018-09-23T10:32:33.416Z,30.65
2018-09-23T10:35:05.076Z,30.65
2018-09-23T10:37:37.015Z,30.67
2018-09-23T10:40:08.785Z,30.65
2018-09-23T10:42:40.884Z,30.67
2018-09-23T10:45:12.582Z,30.68
2018-09-23T10:47:45.359Z,30.68
2018-09-23T10:50:17.227Z,30.67
2018-09-23T10:52:48.856Z,30.67
2018-09-23T10:55:21.026Z,30.68
2018-09-23T10:57:53.053Z,30.68
2018-09-23T11:00:24.788Z,30.70
2018-09-23T11:02:56.885Z,30.69
2018-09-23T11:05:28.764Z,30.69
2018-09-23T11:08:01.351Z,30.70
2018-09-23T11:10:32.946Z,30.69
2018-09-23T11:13:04.784Z,30.70
2018-09-23T11:15:36.663Z,30.69
2018-09-23T11:18:08.743Z,30.70
2018-09-23T11:20:41.009Z,30.69
2018-09-23T11:23:12.855Z,30.71
2018-09-23T11:25:45.034Z,30.61
2018-09-23T11:28:16.934Z,30.56
2018-09-23T11:30:48.599Z,30.55
2018-09-23T11:33:20.403Z,30.53
2018-09-23T11:35:51.891Z,30.53
2018-09-23T11:38:24.565Z,30.51
2018-09-23T11:40:56.511Z,30.49
2018-09-23T11:43:28.258Z,30.49
2018-09-23T11:45:59.943Z,30.51
2018-09-23T11:48:32.064Z,30.49
2018-09-23T11:51:04.052Z,30.49
2018-09-23T11:53:36.637Z,30.47
2018-09-23T11:56:08.184Z,30.48
2018-09-23T11:58:40.294Z,30.49
2018-09-23T12:01:12.687Z,30.48
2018-09-23T12:03:44.501Z,30.49
2018-09-23T12:06:16.103Z,30.49
2018-09-23T12:08:48.666Z,30.50
2018-09-23T12:11:20.992Z,30.50
2018-09-23T12:13:53.108Z,30.50
2018-09-23T12:16:25.056Z,30.48
2018-09-23T12:18:56.956Z,30.49
2018-09-23T12:21:28.561Z,30.48
2018-09-23T12:24:00.361Z,30.49
2018-09-23T12:26:32.234Z,30.49
2018-09-23T12:29:04.571Z,30.50
2018-09-23T12:31:36.529Z,30.49
2018-09-23T12:34:08.374Z,30.51
2018-09-23T12:36:40.158Z,30.51
2018-09-23T12:39:12.873Z,30.50
2018-09-23T12:41:44.635Z,30.50
2018-09-23T12:44:16.475Z,30.52
2018-09-23T12:46:48.051Z,30.50
2018-09-23T12:49:19.984Z,30.50
2018-09-23T12:51:51.647Z,30.50
2018-09-23T12:54:23.761Z,30.50
2018-09-23T12:56:55.556Z,30.49
2018-09-23T12:59:28.096Z,30.50
2018-09-23T13:01:59.884Z,30.48
2018-09-23T13:04:31.921Z,30.50
2018-09-23T13:07:03.673Z,30.49
2018-09-23T13:09:35.772Z,30.49
2018-09-23T13:12:07.427Z,30.49
2018-09-23T13:14:39.183Z,30.49
2018-09-23T13:17:10.655Z,30.49
2018-09-23T13:19:42.588Z,30.46
2018-09-23T13:22:14.540Z,30.47
2018-09-23T13:24:46.268Z,30.48
2018-09-23T13:27:17.947Z,30.48
2018-09-23T13:29:50.463Z,30.48
2018-09-23T13:32:22.241Z,30.47
2018-09-23T13:34:54.502Z,30.45
2018-09-23T13:37:26.618Z,30.45
2018-09-23T13:39:58.426Z,30.44
2018-09-23T13:42:30.165Z,30.42
2018-09-23T13:45:01.978Z,30.43
2018-09-23T13:47:33.782Z,30.44
2018-09-23T13:50:05.577Z,30.43
2018-09-23T13:52:38.075Z,30.42
2018-09-23T13:55:10.862Z,30.41
2018-09-23T13:57:42.947Z,30.42
2018-09-23T14:00:14.973Z,30.41
2018-09-23T14:02:46.815Z,30.43
2018-09-23T14:05:19.010Z,30.41
2018-09-23T14:07:51.004Z,30.40
2018-09-23T14:10:23.687Z,30.41
2018-09-23T14:12:55.531Z,30.41
2018-09-23T14:15:27.336Z,30.40
2018-09-23T14:18:00.073Z,30.42
2018-09-23T14:20:31.957Z,30.42
2018-09-23T14:23:03.848Z,30.41
2018-09-23T14:25:35.589Z,30.41
2018-09-23T14:28:07.336Z,30.40
2018-09-23T14:30:39.584Z,30.40
2018-09-23T14:33:11.257Z,30.40
2018-09-23T14:35:43.085Z,30.40
2018-09-23T14:38:14.965Z,30.40
2018-09-23T14:40:46.765Z,30.40
2018-09-23T14:43:18.469Z,30.40
2018-09-23T14:45:50.317Z,30.40
2018-09-23T14:48:22.107Z,30.39
2018-09-23T14:50:53.816Z,30.37
2018-09-23T14:53:25.756Z,30.38
2018-09-23T14:55:57.544Z,30.38
2018-09-23T14:58:30.425Z,30.38
2018-09-23T15:01:02.290Z,30.38
2018-09-23T15:03:34.145Z,30.38
2018-09-23T15:06:05.972Z,30.38
2018-09-23T15:08:37.705Z,30.38
2018-09-23T15:11:09.536Z,30.38
2018-09-23T15:13:41.466Z,30.40
2018-09-23T15:16:13.387Z,30.39
2018-09-23T15:18:45.186Z,30.39
2018-09-23T15:21:17.394Z,30.40
2018-09-23T15:23:49.254Z,30.38
2018-09-23T15:26:21.130Z,30.38
2018-09-23T15:28:52.875Z,30.37
2018-09-23T15:31:24.909Z,30.37
2018-09-23T15:33:56.617Z,30.37
2018-09-23T15:36:28.676Z,30.36
2018-09-23T15:39:00.161Z,30.36
2018-09-23T15:41:31.980Z,30.36
2018-09-23T15:44:03.737Z,30.35
2018-09-23T15:46:35.587Z,30.36
2018-09-23T15:49:07.652Z,30.39
2018-09-23T15:51:39.298Z,30.40
2018-09-23T15:54:10.959Z,30.40
2018-09-23T15:56:42.827Z,30.41
2018-09-23T15:59:15.297Z,30.42
2018-09-23T16:01:47.476Z,30.42
2018-09-23T16:04:19.104Z,30.42
2018-09-23T16:06:51.815Z,30.42
2018-09-23T16:09:23.356Z,30.43
2018-09-23T16:11:55.149Z,30.44
2018-09-23T16:14:26.981Z,30.44
2018-09-23T16:16:58.968Z,30.44
2018-09-23T16:19:30.852Z,30.46
2018-09-23T16:22:02.636Z,30.46
2018-09-23T16:24:34.299Z,30.45
2018-09-23T16:27:06.336Z,30.47
2018-09-23T16:29:38.165Z,30.47
2018-09-23T16:32:10.220Z,30.47
2018-09-23T16:34:43.126Z,30.48
2018-09-23T16:37:15.091Z,30.47
2018-09-23T16:39:46.646Z,30.47
2018-09-23T16:42:18.508Z,30.47
2018-09-23T16:44:50.324Z,30.49
2018-09-23T16:47:22.334Z,30.47
2018-09-23T16:49:54.295Z,30.47
2018-09-23T16:52:27.567Z,30.49
2018-09-23T16:54:59.521Z,30.48
2018-09-23T16:57:31.445Z,30.48
2018-09-23T17:00:04.591Z,30.47
2018-09-23T17:02:36.427Z,30.47
2018-09-23T17:05:08.230Z,30.49
2018-09-23T17:07:40.303Z,30.49
2018-09-23T17:10:11.966Z,30.50
2018-09-23T17:12:43.849Z,30.49
2018-09-23T17:15:15.729Z,30.48
2018-09-23T17:17:47.606Z,30.50
2018-09-23T17:20:19.300Z,30.50
2018-09-23T17:22:51.612Z,30.49
2018-09-23T17:25:23.427Z,30.50
2018-09-23T17:27:57.462Z,30.49
2018-09-23T17:30:30.533Z,30.49
2018-09-23T17:33:02.340Z,30.48
2018-09-23T17:35:35.735Z,30.50
2018-09-23T17:38:07.808Z,30.50
2018-09-23T17:40:39.843Z,30.50
2018-09-23T17:43:11.460Z,30.49
2018-09-23T17:45:43.325Z,30.50
2018-09-23T17:48:15.117Z,30.50
2018-09-23T17:50:46.802Z,30.49
2018-09-23T17:53:18.618Z,30.48
2018-09-23T17:55:50.365Z,30.49
2018-09-23T17:58:22.358Z,30.49
2018-09-23T18:00:54.108Z,30.49
2018-09-23T18:03:25.971Z,30.50
2018-09-23T18:05:58.612Z,30.50
2018-09-23T18:08:30.621Z,30.50
2018-09-23T18:11:02.332Z,30.49
2018-09-23T18:13:34.157Z,30.50
2018-09-23T18:16:05.768Z,30.50
2018-09-23T18:18:37.724Z,30.51
2018-09-23T18:21:10.113Z,30.50
2018-09-23T18:23:42.414Z,30.50
2018-09-23T18:26:14.146Z,30.50
2018-09-23T18:28:46.234Z,30.49
2018-09-23T18:31:17.852Z,30.49
2018-09-23T18:33:49.660Z,30.47
2018-09-23T18:36:22.102Z,30.47
2018-09-23T18:38:54.089Z,30.48
2018-09-23T18:41:25.814Z,30.49
2018-09-23T18:43:57.633Z,30.48
2018-09-23T18:46:29.766Z,30.48
2018-09-23T18:49:01.536Z,30.48
2018-09-23T18:51:33.326Z,30.49
2018-09-23T18:54:09.666Z,30.50
2018-09-23T18:56:41.734Z,30.49
2018-09-23T18:59:13.606Z,30.50
2018-09-23T19:01:45.403Z,30.49
2018-09-23T19:04:17.235Z,30.49
2018-09-23T19:06:49.168Z,30.48
2018-09-23T19:09:21.196Z,30.47
2018-09-23T19:11:53.072Z,30.49
2018-09-23T19:14:24.916Z,30.47
2018-09-23T19:16:56.649Z,30.45
2018-09-23T19:19:33.075Z,30.45
2018-09-23T19:22:07.221Z,30.43
2018-09-23T19:24:39.149Z,30.47
2018-09-23T19:27:10.927Z,30.47
2018-09-23T19:29:42.542Z,30.45
2018-09-23T19:32:14.393Z,30.44
2018-09-23T19:34:46.073Z,30.45
2018-09-23T19:37:17.898Z,30.46
2018-09-23T19:39:50.071Z,30.46
2018-09-23T19:42:21.905Z,30.46
2018-09-23T19:44:53.715Z,30.46
2018-09-23T19:47:25.611Z,30.47
2018-09-23T19:49:57.464Z,30.45
2018-09-23T19:52:29.264Z,30.43
2018-09-23T19:55:01.130Z,30.43
2018-09-23T19:57:33.536Z,30.43
2018-09-23T20:00:05.358Z,30.43
2018-09-23T20:02:37.196Z,30.41
2018-09-23T20:05:09.007Z,30.43
2018-09-23T20:07:40.899Z,30.42
2018-09-23T20:10:12.822Z,30.44
2018-09-23T20:12:44.639Z,30.45
2018-09-23T20:15:19.021Z,30.44
2018-09-23T20:17:50.817Z,30.45
2018-09-23T20:20:22.661Z,30.45
2018-09-23T20:22:54.542Z,30.44
2018-09-23T20:25:26.182Z,30.41
2018-09-23T20:27:58.071Z,30.43
2018-09-23T20:30:30.136Z,30.44
2018-09-23T20:33:02.311Z,30.44
2018-09-23T20:35:34.289Z,30.43
2018-09-23T20:38:06.165Z,30.42
2018-09-23T20:40:38.260Z,30.41
2018-09-23T20:43:09.795Z,30.41
2018-09-23T20:45:41.715Z,30.42
2018-09-23T20:48:13.624Z,30.41
2018-09-23T20:50:45.628Z,30.40
2018-09-23T20:53:17.449Z,30.41
2018-09-23T20:55:49.133Z,30.41
2018-09-23T20:58:21.628Z,30.40
2018-09-23T21:00:53.866Z,30.40
2018-09-23T21:03:25.822Z,30.39
2018-09-23T21:05:57.869Z,30.40
2018-09-23T21:08:29.605Z,30.41
2018-09-23T21:11:01.315Z,30.41
2018-09-23T21:13:33.397Z,30.41
2018-09-23T21:16:05.304Z,30.40
2018-09-23T21:18:37.176Z,30.41
2018-09-23T21:21:09.445Z,30.41
2018-09-23T21:23:41.222Z,30.40
2018-09-23T21:26:13.314Z,30.39
2018-09-23T21:28:45.387Z,30.39
2018-09-23T21:31:17.227Z,30.39
2018-09-23T21:33:48.907Z,30.38
2018-09-23T21:36:20.713Z,30.36
2018-09-23T21:38:52.770Z,30.36
2018-09-23T21:41:24.499Z,30.37
2018-09-23T21:43:56.262Z,30.38
2018-09-23T21:46:28.179Z,30.38
2018-09-23T21:48:59.757Z,30.36
2018-09-23T21:51:31.722Z,30.37
2018-09-23T21:54:03.542Z,30.35
2018-09-23T21:56:35.480Z,30.35
2018-09-23T21:59:07.629Z,30.34
2018-09-23T22:01:39.545Z,30.36
2018-09-23T22:04:11.284Z,30.35
2018-09-23T22:06:43.295Z,30.35
2018-09-23T22:09:15.100Z,30.36
2018-09-23T22:11:46.805Z,30.33
2018-09-23T22:14:18.604Z,30.34
2018-09-23T22:16:50.804Z,30.33
2018-09-23T22:19:22.316Z,30.34
2018-09-23T22:21:54.113Z,30.33
2018-09-23T22:24:26.027Z,30.33
2018-09-23T22:26:58.077Z,30.34
2018-09-23T22:29:29.985Z,30.32
2018-09-23T22:32:01.879Z,30.32
2018-09-23T22:34:33.723Z,30.31
2018-09-23T22:37:05.957Z,30.32
2018-09-23T22:39:37.848Z,30.31
2018-09-23T22:42:09.908Z,30.30
2018-09-23T22:44:41.751Z,30.32
2018-09-23T22:47:13.347Z,30.32
2018-09-23T22:49:44.845Z,30.31
2018-09-23T22:52:16.767Z,30.31
2018-09-23T22:54:48.658Z,30.32
2018-09-23T22:57:20.675Z,30.30
2018-09-23T22:59:52.558Z,30.29
2018-09-23T23:02:24.677Z,30.28
2018-09-23T23:04:56.513Z,30.27
2018-09-23T23:07:28.474Z,30.28
2018-09-23T23:10:00.181Z,30.27
2018-09-23T23:12:31.991Z,30.30
2018-09-23T23:15:03.896Z,30.30
2018-09-23T23:17:36.143Z,30.28
2018-09-23T23:20:08.088Z,30.28
2018-09-23T23:22:40.352Z,30.28
2018-09-23T23:25:12.456Z,30.26
2018-09-23T23:27:44.422Z,30.28
2018-09-23T23:30:16.168Z,30.28
2018-09-23T23:32:47.923Z,30.28
2018-09-23T23:35:19.703Z,30.28
2018-09-23T23:37:52.914Z,30.27
2018-09-23T23:40:24.793Z,30.25
2018-09-23T23:42:56.830Z,30.26
2018-09-23T23:45:28.597Z,30.25
2018-09-23T23:48:00.510Z,30.24
2018-09-23T23:50:32.430Z,30.25
2018-09-23T23:53:04.602Z,30.26
2018-09-23T23:55:36.440Z,30.25
2018-09-23T23:58:08.239Z,30.25
